Terminal Aerodrome Forecast
Issued by NWS Raleigh/Durham, NC

Home | Current Version | Previous Version | Text Only | Print | Product List | Glossary On
Versions: 1 2 3 4 5 6 7 8 9 10 11 12 13 14 15
000
FTUS42 KRAH 180540
TAFFAY
TAF
KFAY 180540Z 1806/1906 06008KT P6SM SCT045 BKN250
      TEMPO 1810/1813 BKN010
     FM181300 04009KT P6SM SCT045 BKN200
     FM190300 04009KT 6SM -RA SCT025 BKN035 OVC070=

USA.gov is the U.S. government's official web portal to all federal, state and local government web resources and services.